Time;durP1;ratioP1;P1;durP2;ratioP2;P2;SDS_P1;SDS_P2;PMS_P1;PMS_P2;Temp;Humidity;BMP_temperature;BMP_pressure;BME280_temperature;BME280_humidity;BME280_pressure;Samples;Min_cycle;Max_cycle;Signal;HPM_P1;HPM_P2
2023/03/26 00:01:22;;;;;;;12.18;1.60;;;;;;;8.72;100.00;99060.91;5069706;28;20019;-80
2023/03/26 00:03:52;;;;;;;10.10;2.08;;;;;;;8.73;100.00;99059.75;5066996;28;20023;-80
2023/03/26 00:06:22;;;;;;;13.60;2.88;;;;;;;8.73;100.00;99066.09;5056655;28;20507;-79
2023/03/26 00:08:47;;;;;;;10.88;1.83;;;;;;;8.78;100.00;99067.13;5061498;28;20031;-80
2023/03/26 00:11:14;;;;;;;15.35;2.28;;;;;;;8.78;100.00;99084.53;5045732;28;20438;-79
2023/03/26 00:13:42;;;;;;;11.27;2.00;;;;;;;8.79;100.00;99129.63;5072161;28;20515;-79
2023/03/26 00:16:12;;;;;;;9.93;2.20;;;;;;;8.79;100.00;99166.44;5049604;28;20544;-79
2023/03/26 00:18:39;;;;;;;9.45;1.05;;;;;;;8.79;100.00;99190.53;5057276;28;20031;-79
2023/03/26 00:21:06;;;;;;;8.02;0.90;;;;;;;8.77;100.00;99210.22;5080678;28;20066;-80
2023/03/26 00:23:34;;;;;;;6.72;0.95;;;;;;;8.80;100.00;99233.69;5064036;28;20135;-79
2023/03/26 00:26:00;;;;;;;6.82;1.10;;;;;;;8.75;100.00;99242.09;5044056;28;20027;-79
2023/03/26 00:28:26;;;;;;;2.67;0.60;;;;;;;8.77;100.00;99242.63;5061977;28;20026;-79
2023/03/26 00:31:03;;;;;;;6.13;0.63;;;;;;;8.69;100.00;99258.88;5056585;28;20023;-79
2023/03/26 00:33:30;;;;;;;5.38;0.70;;;;;;;8.65;100.00;99260.59;5082800;28;20031;-79
2023/03/26 00:35:57;;;;;;;1.83;0.38;;;;;;;8.60;100.00;99274.53;5064042;28;20028;-79
2023/03/26 00:38:23;;;;;;;2.55;0.30;;;;;;;8.59;100.00;99292.28;5068464;27;20035;-79
2023/03/26 00:40:49;;;;;;;2.60;0.70;;;;;;;8.50;100.00;99291.41;5090893;28;20028;-79
2023/03/26 00:43:19;;;;;;;5.57;0.40;;;;;;;8.48;100.00;99302.75;5087704;27;20035;-79
2023/03/26 00:45:49;;;;;;;2.30;0.30;;;;;;;8.44;100.00;99306.44;5060414;28;20035;-79
2023/03/26 00:48:15;;;;;;;2.05;0.40;;;;;;;8.37;100.00;99317.91;5075755;28;20039;-78
2023/03/26 00:50:41;;;;;;;1.27;0.22;;;;;;;8.35;100.00;99325.69;5067306;28;20047;-79
2023/03/26 00:53:08;;;;;;;1.02;0.20;;;;;;;8.32;100.00;99322.72;5054408;28;20062;-79
2023/03/26 00:55:34;;;;;;;3.67;0.43;;;;;;;8.23;100.00;99336.47;5083719;28;20027;-78
2023/03/26 00:58:00;;;;;;;1.73;0.28;;;;;;;8.21;100.00;99336.75;5084595;28;20032;-78
2023/03/26 01:00:33;;;;;;;2.08;0.50;;;;;;;8.10;100.00;99343.63;5063722;28;20068;-78
2023/03/26 01:03:03;;;;;;;1.80;0.40;;;;;;;8.10;100.00;99351.91;5082497;28;20066;-78
2023/03/26 01:05:32;;;;;;;3.67;0.43;;;;;;;8.04;100.00;99344.84;5066580;28;20640;-78
2023/03/26 01:08:00;;;;;;;2.72;0.50;;;;;;;8.03;100.00;99359.81;5100430;28;20028;-78
2023/03/26 01:10:26;;;;;;;2.92;0.45;;;;;;;7.98;100.00;99351.59;5063925;28;20121;-78
2023/03/26 01:12:51;;;;;;;1.98;0.47;;;;;;;7.94;100.00;99353.31;5063257;28;20032;-78
2023/03/26 01:15:17;;;;;;;3.78;0.70;;;;;;;7.93;100.00;99357.22;5061664;28;20027;-78
2023/03/26 01:17:42;;;;;;;2.08;0.40;;;;;;;7.87;100.00;99363.97;5062884;28;20473;-78
2023/03/26 01:20:17;;;;;;;2.00;0.38;;;;;;;7.81;100.00;99369.59;5060205;28;20027;-78
2023/03/26 01:22:50;;;;;;;2.95;0.52;;;;;;;7.79;100.00;99369.06;5088488;28;20012;-78
2023/03/26 01:25:15;;;;;;;6.07;0.68;;;;;;;7.71;100.00;99369.75;5058498;28;20032;-78
2023/03/26 01:27:53;;;;;;;4.25;0.60;;;;;;;7.68;100.00;99364.84;5083041;28;20369;-78
2023/03/26 01:30:23;;;;;;;4.28;0.75;;;;;;;7.68;100.00;99370.38;5079289;28;20035;-78
2023/03/26 01:33:05;;;;;;;2.88;0.50;;;;;;;7.62;100.00;99385.38;5065549;28;20027;-78
2023/03/26 01:35:51;;;;;;;7.00;0.73;;;;;;;7.61;100.00;99383.75;5062172;28;20526;-78
2023/03/26 01:38:45;;;;;;;5.20;0.70;;;;;;;7.54;100.00;99386.88;5079002;28;20280;-78
2023/03/26 01:41:12;;;;;;;9.20;1.02;;;;;;;7.48;100.00;99384.53;5121220;27;20499;-78
2023/03/26 01:43:40;;;;;;;3.35;1.02;;;;;;;7.47;100.00;99377.38;5086188;28;20039;-78
2023/03/26 01:46:07;;;;;;;6.13;0.77;;;;;;;7.41;100.00;99381.31;5098830;28;20042;-78
2023/03/26 01:48:35;;;;;;;6.70;1.15;;;;;;;7.39;100.00;99384.38;5077626;28;20055;-78
2023/03/26 01:51:00;;;;;;;7.97;1.02;;;;;;;7.36;100.00;99383.06;5082139;28;20027;-78
2023/03/26 01:53:26;;;;;;;8.93;1.10;;;;;;;7.31;100.00;99374.84;5082521;28;20036;-78
2023/03/26 01:56:04;;;;;;;8.48;1.33;;;;;;;7.29;100.00;99387.31;5065504;28;20080;-78
2023/03/26 01:58:57;;;;;;;7.75;1.05;;;;;;;7.24;100.00;99379.09;5082503;28;20028;-78
2023/03/26 02:01:26;;;;;;;6.97;0.90;;;;;;;7.25;100.00;99384.31;5049503;28;20020;-78
2023/03/26 02:04:27;;;;;;;8.55;1.23;;;;;;;7.22;100.00;99382.16;5094034;28;20035;-78
2023/03/26 02:07:10;;;;;;;7.70;1.38;;;;;;;7.21;100.00;99380.50;5108452;28;20570;-78
2023/03/26 02:09:37;;;;;;;;;;;;;;;7.19;100.00;99379.16;5072695;28;20027;-78
2023/03/26 02:12:03;;;;;;;8.13;1.30;;;;;;;7.16;100.00;99375.09;5078530;28;20155;-78
2023/03/26 02:14:30;;;;;;;9.25;1.30;;;;;;;7.20;100.00;99381.63;5070104;28;20073;-78
2023/03/26 02:16:57;;;;;;;6.57;1.00;;;;;;;7.21;100.00;99383.25;5081818;28;20030;-78
2023/03/26 02:19:23;;;;;;;11.98;1.60;;;;;;;7.21;100.00;99385.22;5082087;28;20038;-78
2023/03/26 02:21:50;;;;;;;10.32;1.30;;;;;;;7.22;100.00;99382.16;5085377;28;20032;-78
2023/03/26 02:24:17;;;;;;;7.70;1.35;;;;;;;7.23;100.00;99383.78;5082397;28;20075;-78
2023/03/26 02:26:43;;;;;;;10.40;1.58;;;;;;;7.25;100.00;99378.81;5044961;28;20020;-78
2023/03/26 02:29:08;;;;;;;9.88;1.60;;;;;;;7.27;100.00;99371.03;5071810;28;20043;-78
2023/03/26 02:31:34;;;;;;;15.25;2.55;;;;;;;7.27;100.00;99370.19;5047658;28;20026;-78
2023/03/26 02:34:00;;;;;;;10.48;1.60;;;;;;;7.29;100.00;99377.06;5035836;28;20053;-78
2023/03/26 02:36:28;;;;;;;11.27;1.95;;;;;;;7.31;100.00;99369.31;5062462;28;20039;-78
2023/03/26 02:38:54;;;;;;;14.98;1.40;;;;;;;7.28;100.00;99369.91;5065830;28;20085;-78
2023/03/26 02:41:20;;;;;;;8.40;1.50;;;;;;;7.26;100.00;99366.63;5062714;28;20080;-78
2023/03/26 02:43:45;;;;;;;9.52;1.52;;;;;;;7.28;100.00;99369.09;5061338;28;20572;-78
2023/03/26 02:46:11;;;;;;;9.38;1.48;;;;;;;7.26;100.00;99372.16;5076141;28;20063;-78
2023/03/26 02:48:36;;;;;;;13.48;1.70;;;;;;;7.28;100.00;99367.16;5077188;28;20055;-78
2023/03/26 02:51:02;;;;;;;10.23;1.63;;;;;;;7.22;100.00;99368.34;5082960;27;20705;-78
2023/03/26 02:53:30;;;;;;;17.25;2.60;;;;;;;7.16;100.00;99372.31;5058287;28;20157;-78
2023/03/26 02:55:56;;;;;;;11.52;1.67;;;;;;;7.14;100.00;99369.03;5091694;27;20179;-78
2023/03/26 02:58:24;;;;;;;10.20;1.55;;;;;;;7.10;100.00;99374.34;5083435;27;20031;-78
2023/03/26 03:00:53;;;;;;;10.23;1.60;;;;;;;7.08;100.00;99375.75;5081876;28;20169;-78
2023/03/26 03:03:23;;;;;;;6.60;1.30;;;;;;;7.06;100.00;99364.19;5054524;28;20039;-78
2023/03/26 03:05:50;;;;;;;11.27;2.22;;;;;;;7.03;100.00;99368.34;5081539;27;20029;-78
2023/03/26 03:08:17;;;;;;;13.05;1.73;;;;;;;7.01;100.00;99365.06;5084371;27;20247;-78
2023/03/26 03:10:43;;;;;;;12.85;1.50;;;;;;;6.96;100.00;99358.81;5108970;28;20020;-78
2023/03/26 03:13:08;;;;;;;11.10;1.58;;;;;;;6.93;100.00;99357.44;5075526;27;20053;-78
2023/03/26 03:15:34;;;;;;;10.77;1.88;;;;;;;6.89;100.00;99365.53;5088106;28;20031;-78
2023/03/26 03:17:59;;;;;;;12.00;1.85;;;;;;;6.86;100.00;99359.78;5097931;28;20110;-78
2023/03/26 03:20:25;;;;;;;16.45;6.95;;;;;;;6.86;100.00;99357.03;5060570;28;20024;-78
2023/03/26 03:22:50;;;;;;;20.05;7.30;;;;;;;6.86;100.00;99351.50;5078085;28;20034;-78
2023/03/26 03:25:16;;;;;;;20.55;7.10;;;;;;;6.81;100.00;99349.63;5062144;28;20032;-78
2023/03/26 03:27:42;;;;;;;26.52;5.95;;;;;;;6.83;100.00;99344.63;5084260;27;20035;-78
2023/03/26 03:30:07;;;;;;;16.23;6.10;;;;;;;6.81;100.00;99346.88;5083553;27;20023;-78
2023/03/26 03:32:33;;;;;;;15.50;5.75;;;;;;;6.78;100.00;99350.22;5066148;28;20388;-78
2023/03/26 03:34:58;;;;;;;20.40;5.65;;;;;;;6.81;100.00;99351.56;5076733;27;20023;-78
2023/03/26 03:37:25;;;;;;;18.85;4.68;;;;;;;6.79;100.00;99345.53;5064259;28;20019;-78
2023/03/26 03:39:50;;;;;;;18.33;4.35;;;;;;;6.77;100.00;99348.59;5071123;28;20028;-78
2023/03/26 03:42:16;;;;;;;18.17;4.22;;;;;;;6.81;100.00;99357.09;5083980;28;20031;-78
2023/03/26 03:44:41;;;;;;;10.63;3.60;;;;;;;6.78;100.00;99350.22;5071042;28;20032;-78
2023/03/26 03:47:09;;;;;;;15.85;3.65;;;;;;;6.78;100.00;99339.19;5116746;27;20047;-78
2023/03/26 03:49:34;;;;;;;13.70;3.78;;;;;;;6.77;100.00;99345.84;5117375;27;20035;-78
2023/03/26 03:52:00;;;;;;;14.48;3.45;;;;;;;6.79;100.00;99343.56;5097386;28;20495;-78
2023/03/26 03:54:27;;;;;;;19.63;3.63;;;;;;;6.80;100.00;99331.44;5063084;28;20074;-78
2023/03/26 03:56:52;;;;;;;13.45;2.90;;;;;;;6.82;100.00;99329.19;5073136;28;20083;-78
2023/03/26 03:59:18;;;;;;;15.27;3.17;;;;;;;6.83;100.00;99319.78;5081518;28;20027;-78
2023/03/26 04:01:45;;;;;;;18.73;3.35;;;;;;;6.85;100.00;99323.09;5059687;28;20034;-78
2023/03/26 04:04:11;;;;;;;22.85;4.28;;;;;;;6.86;100.00;99319.19;5111172;28;20042;-78
2023/03/26 04:06:37;;;;;;;16.20;2.85;;;;;;;6.86;100.00;99318.38;5106715;28;20042;-78
2023/03/26 04:09:03;;;;;;;15.38;2.90;;;;;;;6.86;100.00;99313.69;5096768;27;20031;-78
2023/03/26 04:11:28;;;;;;;15.25;3.00;;;;;;;6.89;100.00;99326.06;5092144;27;20039;-78
2023/03/26 04:13:54;;;;;;;14.77;2.75;;;;;;;6.88;100.00;99316.13;5103569;27;20027;-78
2023/03/26 04:16:20;;;;;;;13.90;2.67;;;;;;;6.89;100.00;99318.59;5084060;28;20403;-78
2023/03/26 04:18:45;;;;;;;12.38;2.88;;;;;;;6.88;100.00;99313.38;5081001;28;20035;-78
2023/03/26 04:21:11;;;;;;;11.38;2.50;;;;;;;6.87;100.00;99315.31;5071397;28;20043;-78
2023/03/26 04:23:37;;;;;;;13.55;3.10;;;;;;;6.90;100.00;99317.47;5084376;27;20035;-77
2023/03/26 04:26:04;;;;;;;11.90;2.40;;;;;;;6.89;100.00;99315.84;5104585;27;20027;-78
2023/03/26 04:28:32;;;;;;;11.90;3.00;;;;;;;6.89;100.00;99317.78;5087759;27;20027;-78
2023/03/26 04:31:02;;;;;;;14.02;2.70;;;;;;;6.92;100.00;99311.66;5067720;28;20031;-78
2023/03/26 04:33:32;;;;;;;14.85;2.38;;;;;;;6.90;100.00;99314.72;5058565;27;20479;-78
2023/03/26 04:36:01;;;;;;;15.98;3.05;;;;;;;6.90;100.00;99314.72;5100584;28;20035;-78
2023/03/26 04:38:28;;;;;;;14.38;2.67;;;;;;;6.92;100.00;99304.19;5087472;27;20041;-78
2023/03/26 04:40:58;;;;;;;13.98;2.67;;;;;;;6.91;100.00;99310.03;5088147;27;20056;-78
2023/03/26 04:43:25;;;;;;;14.70;2.92;;;;;;;6.93;100.00;99305.00;5086158;28;20067;-78
2023/03/26 04:45:51;;;;;;;14.32;2.17;;;;;;;6.94;100.00;99304.72;5097318;28;20443;-78
2023/03/26 04:48:16;;;;;;;10.70;2.33;;;;;;;6.99;100.00;99311.28;5061875;28;20089;-78
2023/03/26 04:50:42;;;;;;;12.25;2.88;;;;;;;6.98;100.00;99315.97;5075001;27;20029;-78
2023/03/26 04:53:12;;;;;;;14.23;2.10;;;;;;;7.00;100.00;99318.47;5097985;28;20475;-78
2023/03/26 04:55:58;;;;;;;14.02;2.83;;;;;;;7.06;100.00;99322.78;5097442;27;20113;-78
2023/03/26 04:58:31;;;;;;;14.00;2.45;;;;;;;7.03;100.00;99331.66;5068366;28;20031;-78
2023/03/26 05:00:59;;;;;;;13.82;1.70;;;;;;;7.02;100.00;99332.75;5077896;27;20056;-78
2023/03/26 05:03:30;;;;;;;15.98;2.10;;;;;;;7.01;100.00;99326.41;5119525;27;20080;-78
2023/03/26 05:05:57;;;;;;;10.20;1.77;;;;;;;7.05;100.00;99310.06;5067467;27;20027;-78
2023/03/26 05:08:22;;;;;;;7.63;1.90;;;;;;;7.02;100.00;99333.59;5086812;27;20023;-78
2023/03/26 05:10:48;;;;;;;9.18;1.92;;;;;;;7.04;100.00;99339.63;5059800;28;20035;-78
2023/03/26 05:13:13;;;;;;;9.23;1.70;;;;;;;7.03;100.00;99335.22;5075306;28;20026;-78
2023/03/26 05:15:39;;;;;;;9.82;2.35;;;;;;;7.02;100.00;99338.28;5115656;27;20666;-78
2023/03/26 05:18:05;;;;;;;8.48;1.83;;;;;;;7.05;100.00;99340.44;5087127;27;20024;-78
2023/03/26 05:20:30;;;;;;;9.40;1.77;;;;;;;7.06;100.00;99344.84;5078489;28;20085;-78
2023/03/26 05:22:56;;;;;;;8.23;1.65;;;;;;;7.01;100.00;99342.16;5097662;28;20122;-78
2023/03/26 05:25:21;;;;;;;9.65;1.50;;;;;;;7.04;100.00;99341.56;5119075;27;20034;-78
2023/03/26 05:27:47;;;;;;;7.63;1.55;;;;;;;7.03;100.00;99345.47;5083037;28;20127;-78
2023/03/26 05:30:14;;;;;;;10.27;1.60;;;;;;;7.02;100.00;99341.03;5078339;28;20031;-78
2023/03/26 05:32:40;;;;;;;8.13;1.65;;;;;;;7.04;100.00;99338.81;5075116;28;20030;-78
2023/03/26 05:35:06;;;;;;;8.05;1.27;;;;;;;7.05;100.00;99349.56;5102080;27;20028;-78
2023/03/26 05:37:31;;;;;;;7.28;1.33;;;;;;;7.01;100.00;99342.97;5068851;28;20020;-78
2023/03/26 05:39:58;;;;;;;7.72;1.35;;;;;;;7.03;100.00;99346.28;5086266;27;20024;-78
2023/03/26 05:42:23;;;;;;;8.57;1.42;;;;;;;7.02;100.00;99347.41;5069339;28;20024;-78
2023/03/26 05:44:49;;;;;;;7.28;1.20;;;;;;;7.00;100.00;99346.88;5092770;27;20034;-78
2023/03/26 05:47:14;;;;;;;5.00;1.05;;;;;;;6.98;100.00;99353.81;5056091;28;20040;-78
2023/03/26 05:49:40;;;;;;;7.15;1.20;;;;;;;6.93;100.00;99355.50;5077929;27;20031;-78
2023/03/26 05:52:05;;;;;;;5.07;1.20;;;;;;;6.93;100.00;99362.97;5102112;27;20491;-78
2023/03/26 05:54:31;;;;;;;7.20;1.30;;;;;;;6.94;100.00;99359.13;5093580;28;20563;-78
2023/03/26 05:56:56;;;;;;;8.38;1.33;;;;;;;6.91;100.00;99357.78;5097104;28;20142;-78
2023/03/26 05:59:22;;;;;;;8.35;1.60;;;;;;;6.90;100.00;99363.56;5101780;27;20019;-78
2023/03/26 06:01:49;;;;;;;6.20;1.10;;;;;;;6.86;100.00;99368.06;5069388;28;20050;-78
2023/03/26 06:04:15;;;;;;;5.45;1.17;;;;;;;6.81;100.00;99365.38;5075260;27;20084;-78
2023/03/26 06:06:41;;;;;;;7.95;1.35;;;;;;;6.76;100.00;99369.00;5102853;27;20113;-78
2023/03/26 06:09:07;;;;;;;6.25;1.20;;;;;;;6.69;100.00;99372.13;5096084;27;20042;-78
2023/03/26 06:11:32;;;;;;;6.95;1.30;;;;;;;6.61;100.00;99374.75;5085339;27;20123;-78
2023/03/26 06:13:58;;;;;;;5.60;1.48;;;;;;;6.57;100.00;99379.19;5085082;27;20034;-78
2023/03/26 06:16:24;;;;;;;6.22;1.13;;;;;;;6.56;100.00;99377.56;5085008;27;20099;-78
2023/03/26 06:18:50;;;;;;;6.55;1.30;;;;;;;6.51;100.00;99377.63;5102119;27;20035;-78
2023/03/26 06:21:16;;;;;;;8.75;1.45;;;;;;;6.44;100.00;99375.22;5077326;28;20422;-78
2023/03/26 06:23:41;;;;;;;8.20;1.35;;;;;;;6.43;100.00;99371.63;5085149;27;20026;-78
2023/03/26 06:26:07;;;;;;;5.25;1.13;;;;;;;6.36;100.00;99379.44;5068865;27;20023;-80
2023/03/26 06:28:32;;;;;;;3.72;1.20;;;;;;;6.33;100.00;99385.56;5068620;27;20023;-80
2023/03/26 06:30:59;;;;;;;5.15;1.23;;;;;;;6.33;100.00;99387.50;5072313;28;20081;-80
2023/03/26 06:33:25;;;;;;;8.43;1.45;;;;;;;6.30;100.00;99379.81;5092533;27;20034;-80
2023/03/26 06:35:50;;;;;;;5.15;1.25;;;;;;;6.28;100.00;99382.84;5098473;28;20473;-80
2023/03/26 06:38:16;;;;;;;8.00;1.40;;;;;;;6.28;100.00;99380.09;5067999;27;20080;-80
2023/03/26 06:40:41;;;;;;;10.05;1.45;;;;;;;6.31;100.00;99382.25;5090241;28;20047;-80
2023/03/26 06:43:07;;;;;;;6.80;1.30;;;;;;;6.34;100.00;99384.44;5094433;27;20039;-80
2023/03/26 06:45:32;;;;;;;5.03;1.30;;;;;;;6.41;100.00;99386.84;5062689;27;20023;-80
2023/03/26 06:47:58;;;;;;;5.43;1.00;;;;;;;6.46;100.00;99392.28;5093321;27;20116;-80
2023/03/26 06:50:24;;;;;;;9.73;1.25;;;;;;;6.54;100.00;99397.16;5081353;28;20027;-80
2023/03/26 06:52:52;;;;;;;6.93;1.40;;;;;;;6.64;100.00;99393.47;5078997;27;20439;-80
2023/03/26 06:55:18;;;;;;;4.05;0.77;;;;;;;6.75;100.00;99392.22;5095599;27;20027;-80
2023/03/26 06:57:57;;;;;;;5.53;1.00;;;;;;;6.86;100.00;99385.44;5076362;28;20031;-80
2023/03/26 07:00:22;;;;;;;6.22;1.35;;;;;;;6.97;100.00;99397.16;5061409;28;20024;-80
2023/03/26 07:02:48;;;;;;;5.10;1.10;;;;;;;7.07;100.00;99396.19;5068056;28;20016;-80
2023/03/26 07:05:13;;;;;;;7.20;1.38;;;;;;;7.14;100.00;99397.47;5084603;27;20027;-80
2023/03/26 07:07:39;;;;;;;7.38;1.08;;;;;;;7.22;100.00;99395.97;5095719;28;20604;-80
2023/03/26 07:10:05;;;;;;;8.50;0.95;;;;;;;7.28;100.00;99391.19;5073979;27;20120;-80
2023/03/26 07:12:30;;;;;;;6.60;1.15;;;;;;;7.32;100.00;99390.28;5060459;28;20020;-80
2023/03/26 07:14:56;;;;;;;6.63;0.90;;;;;;;7.37;100.00;99392.16;5076318;28;20842;-78
2023/03/26 07:17:21;;;;;;;6.55;1.08;;;;;;;7.41;100.00;99395.13;5097640;28;20028;-78
2023/03/26 07:19:47;;;;;;;6.13;1.13;;;;;;;7.43;100.00;99390.94;5092687;27;20035;-78
2023/03/26 07:22:21;;;;;;;6.72;1.20;;;;;;;7.50;100.00;99385.88;5080673;28;20024;-78
2023/03/26 07:24:47;;;;;;;8.05;1.30;;;;;;;7.59;100.00;99386.00;5094197;27;20035;-78
2023/03/26 07:27:34;;;;;;;7.75;1.13;;;;;;;7.71;100.00;99380.00;5063898;28;20084;-78
2023/03/26 07:30:20;;;;;;;9.05;1.15;;;;;;;7.86;100.00;99378.94;5113049;27;20030;-78
2023/03/26 07:32:45;;;;;;;11.32;1.83;;;;;;;8.01;100.00;99382.22;5100899;27;20100;-78
2023/03/26 07:35:28;;;;;;;6.63;1.25;;;;;;;8.18;100.00;99383.56;5097242;28;20028;-78
2023/03/26 07:38:15;;;;;;;9.57;1.13;;;;;;;8.33;100.00;99382.44;5118066;28;20038;-78
2023/03/26 07:41:10;;;;;;;13.88;1.60;;;;;;;8.46;100.00;99382.47;5136333;27;20115;-78
2023/03/26 07:43:57;;;;;;;12.32;2.30;;;;;;;8.58;100.00;99395.00;5087678;27;20122;-78
2023/03/26 07:46:30;;;;;;;12.43;1.90;;;;;;;8.66;100.00;99392.34;5117732;28;20027;-78
2023/03/26 07:48:57;;;;;;;7.00;1.30;;;;;;;8.72;100.00;99385.56;5100769;28;20067;-78
2023/03/26 07:51:23;;;;;;;4.57;0.90;;;;;;;8.79;100.00;99384.31;5082426;28;20038;-78
2023/03/26 07:53:49;;;;;;;9.38;1.42;;;;;;;8.82;100.00;99380.94;5112208;28;20117;-78
2023/03/26 07:56:44;;;;;;;7.55;1.27;;;;;;;8.88;100.00;99379.69;5100728;28;20057;-78
2023/03/26 07:59:15;;;;;;;10.77;1.77;;;;;;;8.89;100.00;99378.56;5115620;28;20492;-73
2023/03/26 08:01:55;;;;;;;12.10;1.98;;;;;;;8.92;100.00;99377.94;5118049;28;20046;-79
2023/03/26 08:04:36;;;;;;;8.07;2.00;;;;;;;8.94;100.00;99386.75;5100035;28;20364;-79
2023/03/26 08:07:07;;;;;;;15.00;1.95;;;;;;;8.93;100.00;99385.13;5116500;28;20040;-78
2023/03/26 08:10:25;;;;;;;14.40;1.88;;;;;;;8.97;100.00;99390.84;5080706;28;20084;-78
2023/03/26 08:13:09;;;;;;;11.73;1.80;;;;;;;8.98;100.00;99387.78;5080446;28;20043;-78
2023/03/26 08:15:52;;;;;;;16.42;2.10;;;;;;;9.00;100.00;99406.84;5095888;28;20492;-79
2023/03/26 08:19:32;;;;;;;13.85;2.03;;;;;;;8.99;100.00;99406.03;5099843;28;20031;-80
2023/03/26 08:22:14;;;;;;;18.25;2.08;;;;;;;8.95;100.00;99439.06;4971352;28;20027;-81
2023/03/26 08:24:46;;;;;;;11.30;2.53;;;;;;;8.79;100.00;99440.50;5003356;28;20449;-81
2023/03/26 08:27:20;;;;;;;8.70;2.00;;;;;;;8.76;100.00;99432.00;5052320;28;20027;-82
2023/03/26 08:29:48;;;;;;;9.55;1.75;;;;;;;8.66;100.00;99433.88;5080084;28;20035;-81
2023/03/26 08:32:16;;;;;;;4.80;1.42;;;;;;;8.60;100.00;99431.47;5102821;28;20433;-81
2023/03/26 08:34:41;;;;;;;4.88;1.40;;;;;;;8.56;100.00;99422.16;5078995;28;20130;-80
2023/03/26 08:37:08;;;;;;;6.10;1.50;;;;;;;8.45;100.00;99427.09;5096581;28;20024;-80
2023/03/26 08:39:35;;;;;;;4.78;1.33;;;;;;;8.37;100.00;99430.53;5060578;28;20036;-80
2023/03/26 08:42:23;;;;;;;2.53;1.08;;;;;;;8.33;100.00;99437.78;5068795;27;20020;-80
2023/03/26 08:45:10;;;;;;;4.82;0.90;;;;;;;8.27;100.00;99423.22;5110888;28;20042;-80
2023/03/26 08:48:03;;;;;;;4.20;0.80;;;;;;;8.20;100.00;99412.56;5112032;28;20047;-81
2023/03/26 08:50:48;;;;;;;5.28;0.90;;;;;;;8.14;100.00;99411.03;5126243;28;20023;-80
2023/03/26 08:53:20;;;;;;;5.00;0.70;;;;;;;8.15;100.00;99417.38;5135297;28;20031;-80
2023/03/26 08:55:51;;;;;;;3.85;0.90;;;;;;;8.14;100.00;99408.25;5101865;27;20031;-80
2023/03/26 08:58:32;;;;;;;1.27;0.60;;;;;;;8.15;100.00;99398.00;5087282;27;20038;-80
2023/03/26 09:01:16;;;;;;;4.82;1.02;;;;;;;8.18;100.00;99400.97;5121092;27;20031;-84
2023/03/26 09:04:03;;;;;;;2.30;0.60;;;;;;;8.24;100.00;99413.59;5135975;27;20382;-80
2023/03/26 09:06:28;;;;;;;4.35;0.77;;;;;;;8.33;100.00;99401.81;5109406;27;20063;-80
2023/03/26 09:09:32;;;;;;;3.03;0.60;;;;;;;8.44;100.00;99414.34;5120747;27;20046;-80
2023/03/26 09:12:06;;;;;;;;;;;;;;;8.55;100.00;99415.78;5086342;27;20031;-84
2023/03/26 09:14:50;;;;;;;4.38;0.90;;;;;;;8.67;100.00;99415.31;5086715;27;20399;-83
2023/03/26 09:17:31;;;;;;;5.00;0.90;;;;;;;8.76;100.00;99423.69;5121104;27;20031;-83
2023/03/26 09:20:07;;;;;;;3.38;0.60;;;;;;;8.79;100.00;99412.00;5120801;27;20019;-83
2023/03/26 09:22:45;;;;;;;2.47;0.60;;;;;;;8.88;100.00;99423.97;5084392;28;20031;-84
2023/03/26 09:25:55;;;;;;;5.32;1.13;;;;;;;8.91;100.00;99428.91;5100437;27;20480;-84
2023/03/26 09:28:54;;;;;;;5.70;1.00;;;;;;;8.92;100.00;99406.47;5130555;27;20118;-84
2023/03/26 09:31:35;;;;;;;3.58;0.90;;;;;;;8.90;100.00;99427.28;5101026;28;20028;-84
2023/03/26 09:34:55;;;;;;;4.25;1.33;;;;;;;8.91;100.00;99417.81;5108018;27;20467;-83
2023/03/26 09:37:46;;;;;;;6.30;1.23;;;;;;;8.86;100.00;99420.69;5038895;28;20028;-83
2023/03/26 09:40:17;;;;;;;6.13;1.40;;;;;;;8.79;100.00;99410.06;5074654;27;20046;-84
2023/03/26 09:42:46;;;;;;;3.20;1.30;;;;;;;8.77;100.00;99414.25;5078997;28;20028;-79
2023/03/26 09:45:30;;;;;;;4.22;1.38;;;;;;;8.72;100.00;99429.03;5110838;27;20122;-79
2023/03/26 09:48:00;;;;;;;5.28;1.50;;;;;;;8.64;100.00;99433.34;5138092;27;20054;-79
2023/03/26 09:50:31;;;;;;;4.13;1.10;;;;;;;8.61;100.00;99442.25;5119573;27;20084;-79
2023/03/26 09:53:29;;;;;;;4.43;1.17;;;;;;;8.53;100.00;99440.22;5102250;27;20483;-79
2023/03/26 09:56:03;;;;;;;4.68;1.10;;;;;;;8.47;100.00;99433.13;5099813;27;20043;-79
2023/03/26 09:58:50;;;;;;;5.60;1.45;;;;;;;8.41;100.00;99432.41;5113334;27;20054;-79
2023/03/26 10:01:22;;;;;;;4.82;1.02;;;;;;;8.33;100.00;99432.25;5078851;27;20023;-79
2023/03/26 10:03:59;;;;;;;3.33;0.85;;;;;;;8.28;100.00;99422.13;5101117;27;20088;-79
2023/03/26 10:06:25;;;;;;;2.72;1.10;;;;;;;8.25;100.00;99425.50;5081954;27;20395;-79
2023/03/26 10:09:16;;;;;;;4.15;1.10;;;;;;;8.18;100.00;99425.88;5119134;27;20031;-79
2023/03/26 10:11:56;;;;;;;4.32;1.20;;;;;;;8.16;100.00;99419.00;5137438;27;20038;-79
2023/03/26 10:14:31;;;;;;;3.78;0.95;;;;;;;8.12;100.00;99418.81;5072552;27;20479;-79
2023/03/26 10:17:24;;;;;;;2.63;1.10;;;;;;;8.09;100.00;99416.66;5101892;27;20043;-79
2023/03/26 10:20:16;;;;;;;5.60;1.10;;;;;;;8.08;100.00;99437.13;5102093;27;20047;-79
2023/03/26 10:23:06;;;;;;;4.97;1.30;;;;;;;8.06;100.00;99442.97;5109708;28;20479;-79
2023/03/26 10:25:44;;;;;;;4.45;1.20;;;;;;;8.09;100.00;99452.59;5118479;27;20031;-79
2023/03/26 10:28:32;;;;;;;2.63;0.82;;;;;;;8.11;100.00;99447.59;5102086;27;20031;-78
2023/03/26 10:31:19;;;;;;;3.35;0.93;;;;;;;8.13;100.00;99445.31;5118877;27;20522;-84
2023/03/26 10:33:53;;;;;;;2.15;0.85;;;;;;;8.17;100.00;99429.78;5097863;28;20367;-84
2023/03/26 10:36:35;;;;;;;3.17;1.13;;;;;;;8.22;100.00;99432.44;5083393;27;20394;-83
2023/03/26 10:39:27;;;;;;;3.38;1.00;;;;;;;8.28;100.00;99436.75;5058509;27;20029;-84
2023/03/26 10:41:52;;;;;;;3.40;1.02;;;;;;;8.43;100.00;99432.91;5099970;27;20081;-84
2023/03/26 10:44:49;;;;;;;3.58;0.70;;;;;;;8.53;100.00;99415.31;5098533;28;20019;-70
2023/03/26 10:47:23;;;;;;;2.88;0.77;;;;;;;8.72;100.00;99424.31;5119166;27;20062;-70
2023/03/26 10:50:29;;;;;;;4.53;1.00;;;;;;;8.94;100.00;99417.19;5120403;27;20031;-77
2023/03/26 10:52:58;;;;;;;3.67;0.60;;;;;;;9.15;100.00;99421.19;5105259;27;20015;-78
2023/03/26 10:55:39;;;;;;;3.03;0.70;;;;;;;9.34;100.00;99417.44;5076210;27;20030;-78
2023/03/26 10:58:18;;;;;;;1.65;0.57;;;;;;;9.54;100.00;99403.09;5080497;28;20032;-78
2023/03/26 11:00:49;;;;;;;2.53;0.57;;;;;;;9.68;100.00;99405.81;5112469;27;20042;-78
2023/03/26 11:03:33;;;;;;;1.35;0.55;;;;;;;9.84;100.00;99412.63;5100170;27;20376;-82
2023/03/26 11:06:05;;;;;;;1.23;0.50;;;;;;;10.00;100.00;99418.59;5101217;27;20031;-77
2023/03/26 11:09:05;;;;;;;1.98;0.90;;;;;;;10.21;100.00;99423.59;5079366;28;20070;-80
2023/03/26 11:11:37;;;;;;;2.65;1.05;;;;;;;10.35;100.00;99429.91;5094972;27;20032;-79
2023/03/26 11:14:21;;;;;;;2.25;0.88;;;;;;;10.50;100.00;99434.22;5108106;27;20035;-79
2023/03/26 11:16:48;;;;;;;1.77;0.73;;;;;;;10.66;100.00;99437.41;5093743;28;20059;-79
2023/03/26 11:19:15;;;;;;;2.13;0.63;;;;;;;10.83;100.00;99439.41;5120821;27;20042;-79
2023/03/26 11:22:01;;;;;;;1.63;0.70;;;;;;;10.99;100.00;99445.34;5104441;27;20479;-78
2023/03/26 11:24:29;;;;;;;2.35;0.75;;;;;;;11.12;100.00;99448.00;5105624;27;20027;-79
2023/03/26 11:26:57;;;;;;;2.95;0.70;;;;;;;11.29;100.00;99455.56;5123298;27;20038;-78
2023/03/26 11:29:26;;;;;;;3.72;1.15;;;;;;;11.42;100.00;99450.97;5101501;28;20023;-79
2023/03/26 11:32:10;;;;;;;3.28;0.90;;;;;;;11.55;100.00;99450.00;5116750;27;20028;-78
2023/03/26 11:34:43;;;;;;;2.60;0.88;;;;;;;11.70;100.00;99448.72;5096498;27;20045;-78
2023/03/26 11:37:15;;;;;;;2.03;0.60;;;;;;;11.87;100.00;99452.66;5100811;27;20654;-78
2023/03/26 11:39:51;;;;;;;4.00;0.90;;;;;;;11.99;100.00;99453.63;5101567;27;20023;-78
2023/03/26 11:42:20;;;;;;;3.88;0.90;;;;;;;12.10;100.00;99465.25;5091704;28;20027;-78
2023/03/26 11:44:54;;;;;;;1.27;0.60;;;;;;;12.20;100.00;99464.91;5096991;27;20039;-78
2023/03/26 11:47:28;;;;;;;3.00;0.80;;;;;;;12.32;100.00;99460.63;5083989;27;20116;-78
2023/03/26 11:49:54;;;;;;;4.45;1.17;;;;;;;12.44;100.00;99463.53;5079740;28;20487;-79
2023/03/26 11:52:22;;;;;;;2.75;0.90;;;;;;;12.53;100.00;99467.91;5091697;28;20071;-79
2023/03/26 11:54:49;;;;;;;6.18;0.90;;;;;;;12.63;100.00;99463.16;5100686;28;20157;-78